Time;durP1;ratioP1;P1;durP2;ratioP2;P2;SDS_P1;SDS_P2;PMS_P1;PMS_P2;Temp;Humidity;BMP_temperature;BMP_pressure;BME280_temperature;BME280_humidity;BME280_pressure;Samples;Min_cycle;Max_cycle;Signal;HPM_P1;HPM_P2
2022/08/22 00:00:28;;;;;;;7.40;3.03;;;16.50;99.90;;;;;;5075949;28;20053;-92
2022/08/22 00:02:54;;;;;;;6.18;3.15;;;16.50;99.90;;;;;;5076960;28;20047;-93
2022/08/22 00:05:26;;;;;;;5.20;3.00;;;16.50;99.90;;;;;;5092156;28;20617;-91
2022/08/22 00:08:31;;;;;;;10.32;3.53;;;16.50;99.90;;;;;;5095918;28;20060;-91
2022/08/22 00:11:31;;;;;;;9.25;3.45;;;16.40;99.90;;;;;;5095303;28;20052;-89
2022/08/22 00:14:07;;;;;;;6.28;3.15;;;16.40;99.90;;;;;;5114430;28;20044;-90
2022/08/22 00:16:39;;;;;;;6.55;3.38;;;16.40;99.90;;;;;;5114243;28;20031;-91
2022/08/22 00:19:45;;;;;;;6.32;3.30;;;16.30;99.90;;;;;;5094328;28;20502;-92
2022/08/22 00:22:38;;;;;;;7.25;3.70;;;16.30;99.90;;;;;;5107958;28;20752;-91
2022/08/22 00:25:32;;;;;;;8.65;3.25;;;16.30;99.90;;;;;;5099705;28;20146;-91
2022/08/22 00:28:06;;;;;;;7.30;3.15;;;16.30;99.90;;;;;;5049486;28;20056;-92
2022/08/22 00:30:55;;;;;;;6.95;3.03;;;16.30;99.90;;;;;;5093225;28;20091;-92
2022/08/22 00:33:39;;;;;;;6.88;3.40;;;16.30;99.90;;;;;;5048038;28;20056;-89
2022/08/22 00:36:13;;;;;;;8.18;3.42;;;16.30;99.90;;;;;;5076456;28;20765;-90
2022/08/22 00:38:51;;;;;;;8.13;3.70;;;16.30;99.90;;;;;;5092233;28;20059;-92
2022/08/22 00:41:42;;;;;;;5.63;3.42;;;16.30;99.90;;;;;;5042967;28;20056;-93
2022/08/22 00:44:11;;;;;;;7.18;3.10;;;16.30;99.90;;;;;;5092104;28;20372;-91
2022/08/22 00:47:10;;;;;;;6.53;3.38;;;16.30;99.90;;;;;;5074975;28;20059;-91
2022/08/22 00:49:42;;;;;;;9.45;3.17;;;16.30;99.90;;;;;;5093169;28;20044;-91
2022/08/22 00:52:21;;;;;;;9.02;3.50;;;16.20;99.90;;;;;;5073924;28;20048;-91
2022/08/22 00:55:18;;;;;;;6.97;3.17;;;16.20;99.90;;;;;;5074063;28;20739;-91
2022/08/22 00:57:43;;;;;;;8.25;3.05;;;16.20;99.90;;;;;;5073966;28;20407;-90
2022/08/22 01:00:19;;;;;;;7.57;3.20;;;16.20;99.90;;;;;;5090664;28;20051;-92
2022/08/22 01:03:06;;;;;;;6.25;3.33;;;16.10;99.90;;;;;;5073917;28;20044;-91
2022/08/22 01:05:47;;;;;;;5.18;3.33;;;16.10;99.90;;;;;;5073639;28;20074;-91
2022/08/22 01:08:32;;;;;;;6.00;3.80;;;16.10;99.90;;;;;;5075468;28;20093;-93
2022/08/22 01:11:14;;;;;;;6.88;4.15;;;16.10;99.90;;;;;;5094233;28;20110;-93
2022/08/22 01:13:58;;;;;;;8.27;3.70;;;16.00;99.90;;;;;;5061273;28;20052;-92
2022/08/22 01:16:59;;;;;;;8.90;4.03;;;15.90;99.90;;;;;;5091929;28;20107;-93
2022/08/22 01:19:52;;;;;;;8.98;3.55;;;15.90;99.90;;;;;;5043412;28;20105;-95
2022/08/22 01:22:42;;;;;;;9.70;3.75;;;15.90;99.90;;;;;;5074781;28;20051;-92
2022/08/22 01:25:33;;;;;;;8.85;3.75;;;15.90;99.90;;;;;;5075371;28;20060;-93
2022/08/22 01:28:23;;;;;;;9.10;3.40;;;15.90;99.90;;;;;;5092453;28;20488;-92
2022/08/22 01:31:08;;;;;;;13.70;4.30;;;15.90;99.90;;;;;;5097137;28;20051;-91
2022/08/22 01:33:36;;;;;;;;;;;15.90;99.90;;;;;;5101006;28;20052;-90
2022/08/22 01:36:23;;;;;;;12.32;4.20;;;16.00;99.90;;;;;;5093658;28;19942;-91
2022/08/22 01:38:59;;;;;;;6.70;3.35;;;16.00;99.90;;;;;;5093482;28;20484;-91
2022/08/22 01:41:43;;;;;;;9.73;3.40;;;15.90;99.90;;;;;;5075296;28;20044;-93
2022/08/22 01:44:32;;;;;;;8.77;4.05;;;15.90;99.90;;;;;;5074408;28;20042;-91
2022/08/22 01:47:12;;;;;;;7.20;3.72;;;15.90;99.90;;;;;;5073936;28;20099;-94
2022/08/22 01:49:52;;;;;;;6.75;3.58;;;15.80;99.90;;;;;;5074739;28;20127;-95
2022/08/22 01:52:47;;;;;;;9.27;3.60;;;15.80;99.90;;;;;;5062536;28;20484;-91
2022/08/22 01:55:29;;;;;;;9.30;4.18;;;15.80;99.90;;;;;;5077705;28;20127;-92
2022/08/22 01:58:14;;;;;;;12.40;3.85;;;15.70;99.90;;;;;;5078160;28;20048;-92
2022/08/22 02:01:09;;;;;;;7.93;3.80;;;15.70;99.90;;;;;;5061421;28;20539;-91
2022/08/22 02:03:59;;;;;;;5.55;3.47;;;15.70;99.90;;;;;;5079807;28;20241;-93
2022/08/22 02:06:59;;;;;;;6.00;3.60;;;15.70;99.90;;;;;;5079886;28;20094;-92
2022/08/22 02:09:47;;;;;;;5.78;3.33;;;15.70;99.90;;;;;;5079649;28;20055;-93
2022/08/22 02:12:25;;;;;;;9.73;3.72;;;15.80;99.90;;;;;;5078386;28;20154;-94
2022/08/22 02:15:02;;;;;;;7.03;3.45;;;15.70;99.90;;;;;;5096125;28;20154;-93
2022/08/22 02:17:34;;;;;;;7.97;3.40;;;15.80;99.90;;;;;;5076844;28;20048;-93
2022/08/22 02:20:09;;;;;;;7.55;3.90;;;15.80;99.90;;;;;;5078421;28;20487;-93
2022/08/22 02:23:12;;;;;;;8.27;3.65;;;15.70;99.90;;;;;;5060331;28;20191;-94
2022/08/22 02:25:48;;;;;;;6.75;4.28;;;15.70;99.90;;;;;;5070440;28;20088;-93
2022/08/22 02:28:57;;;;;;;5.95;3.35;;;15.70;99.90;;;;;;5077011;28;20047;-92
2022/08/22 02:31:38;;;;;;;6.50;3.67;;;15.60;99.90;;;;;;5048935;28;20063;-94
2022/08/22 02:34:26;;;;;;;6.25;3.63;;;15.60;99.90;;;;;;5077769;28;20131;-93
2022/08/22 02:37:02;;;;;;;8.75;4.07;;;15.60;99.90;;;;;;5076935;28;20047;-92
2022/08/22 02:39:32;;;;;;;7.28;3.67;;;15.60;99.90;;;;;;5093143;28;20052;-92
2022/08/22 02:42:15;;;;;;;8.27;3.92;;;15.50;99.90;;;;;;5077857;28;20052;-93
2022/08/22 02:44:46;;;;;;;6.40;3.85;;;15.50;99.90;;;;;;5061318;28;20056;-93
2022/08/22 02:47:40;;;;;;;10.43;3.60;;;15.50;99.90;;;;;;5094386;28;20066;-93
2022/08/22 02:50:12;;;;;;;8.48;3.85;;;15.40;99.90;;;;;;5072703;28;20139;-93
2022/08/22 02:52:50;;;;;;;9.25;3.72;;;15.40;99.90;;;;;;5093329;28;20098;-92
2022/08/22 02:55:40;;;;;;;6.43;3.92;;;15.40;99.90;;;;;;5093629;28;20399;-92
2022/08/22 02:58:10;;;;;;;12.75;4.25;;;15.40;99.90;;;;;;5063864;28;20141;-95
2022/08/22 03:01:19;;;;;;;9.07;4.05;;;15.30;99.90;;;;;;5082540;28;20491;-92
2022/08/22 03:03:45;;;;;;;8.48;4.00;;;15.30;99.90;;;;;;5063858;28;20060;-92
2022/08/22 03:06:37;;;;;;;7.68;3.28;;;15.30;99.90;;;;;;5105722;28;20524;-93
2022/08/22 03:09:18;;;;;;;8.43;3.88;;;15.20;99.90;;;;;;5104668;28;20496;-92
2022/08/22 03:11:46;;;;;;;8.65;3.80;;;15.20;99.90;;;;;;5098206;28;20441;-93
2022/08/22 03:14:42;;;;;;;7.43;4.18;;;15.20;99.90;;;;;;5096476;28;20491;-93
2022/08/22 03:17:21;;;;;;;7.85;4.00;;;15.20;99.90;;;;;;5077492;28;20094;-93
2022/08/22 03:20:00;;;;;;;8.05;4.05;;;15.10;99.90;;;;;;5061025;28;20369;-93
2022/08/22 03:22:34;;;;;;;9.10;4.10;;;15.10;99.90;;;;;;5093717;28;20052;-92
2022/08/22 03:25:11;;;;;;;12.02;4.55;;;15.10;99.90;;;;;;5093509;28;20101;-95
2022/08/22 03:28:11;;;;;;;10.75;4.40;;;15.10;99.90;;;;;;5075919;28;20044;-94
2022/08/22 03:30:49;;;;;;;8.93;4.35;;;15.10;99.90;;;;;;5075706;28;20044;-94
2022/08/22 03:33:23;;;;;;;13.82;4.50;;;15.10;99.90;;;;;;5092987;28;20044;-93
2022/08/22 03:35:58;;;;;;;8.15;4.68;;;15.10;99.90;;;;;;5058915;28;20044;-94
2022/08/22 03:38:33;;;;;;;10.52;4.45;;;15.10;99.90;;;;;;5059947;28;20048;-92
2022/08/22 03:41:11;;;;;;;9.57;4.65;;;15.10;99.90;;;;;;5091919;28;20059;-93
2022/08/22 03:43:55;;;;;;;8.75;4.88;;;15.10;99.90;;;;;;5074902;28;20063;-92
2022/08/22 03:46:47;;;;;;;11.05;5.35;;;15.20;99.90;;;;;;5092162;28;20087;-94
2022/08/22 03:49:37;;;;;;;10.10;5.00;;;15.20;99.90;;;;;;5076438;28;20052;-92
2022/08/22 03:52:15;;;;;;;10.52;4.78;;;15.20;99.90;;;;;;5091593;28;20077;-92
2022/08/22 03:55:06;;;;;;;11.13;5.18;;;15.20;99.90;;;;;;5074879;28;20052;-94
2022/08/22 03:57:53;;;;;;;13.55;5.97;;;15.20;99.90;;;;;;5058204;28;20093;-93
2022/08/22 04:00:46;;;;;;;8.50;4.97;;;15.20;99.90;;;;;;5091700;28;20457;-93
2022/08/22 04:03:37;;;;;;;7.65;4.95;;;15.20;99.90;;;;;;5094394;28;20052;-93
2022/08/22 04:06:26;;;;;;;9.18;4.90;;;15.20;99.90;;;;;;5091481;28;20048;-93
2022/08/22 04:09:24;;;;;;;8.60;5.03;;;15.20;99.90;;;;;;5073834;28;20056;-93
2022/08/22 04:11:55;;;;;;;9.95;4.90;;;15.20;99.90;;;;;;5067876;28;20062;-90
2022/08/22 04:14:24;;;;;;;10.35;4.88;;;15.30;99.90;;;;;;5091032;28;20048;-92
2022/08/22 04:16:49;;;;;;;8.57;4.72;;;15.20;99.90;;;;;;5074336;28;20499;-92
2022/08/22 04:19:37;;;;;;;10.23;5.15;;;15.20;99.90;;;;;;5091426;28;20077;-92
2022/08/22 04:22:19;;;;;;;12.00;5.30;;;15.30;99.90;;;;;;5100120;28;20098;-92
2022/08/22 04:25:03;;;;;;;9.32;5.43;;;15.30;99.90;;;;;;5108306;28;20078;-91
2022/08/22 04:27:40;;;;;;;13.73;5.35;;;15.30;99.90;;;;;;5114363;28;20055;-88
2022/08/22 04:30:08;;;;;;;13.77;6.07;;;15.30;99.90;;;;;;5099709;28;20073;-91
2022/08/22 04:32:46;;;;;;;12.18;6.00;;;15.30;99.90;;;;;;5094666;28;20059;-90
2022/08/22 04:35:31;;;;;;;14.05;6.70;;;15.30;99.90;;;;;;5106468;28;20100;-93
2022/08/22 04:38:06;;;;;;;10.07;6.43;;;15.30;99.90;;;;;;5082936;28;20040;-93
2022/08/22 04:40:41;;;;;;;11.98;6.50;;;15.30;99.90;;;;;;5063104;28;20062;-92
2022/08/22 04:43:17;;;;;;;13.75;6.70;;;15.30;99.90;;;;;;5079897;28;20088;-93
2022/08/22 04:46:10;;;;;;;11.27;7.22;;;15.30;99.90;;;;;;5061736;28;20059;-91
2022/08/22 04:49:02;;;;;;;12.00;7.22;;;15.30;99.90;;;;;;5092482;28;20053;-87
2022/08/22 04:51:52;;;;;;;12.07;7.10;;;15.40;99.90;;;;;;5076177;28;20055;-94
2022/08/22 04:54:32;;;;;;;11.80;7.10;;;15.40;99.90;;;;;;5076094;28;20058;-92
2022/08/22 04:57:21;;;;;;;11.60;7.07;;;15.40;99.90;;;;;;5075268;28;20052;-93
2022/08/22 04:59:48;;;;;;;12.32;7.57;;;15.50;99.90;;;;;;5074757;28;20056;-93
2022/08/22 05:02:20;;;;;;;12.65;7.10;;;15.50;99.90;;;;;;5059083;28;20051;-92
2022/08/22 05:04:49;;;;;;;15.82;7.22;;;15.50;99.90;;;;;;5042126;28;20396;-91
2022/08/22 05:07:25;;;;;;;16.83;7.35;;;15.60;99.90;;;;;;5091987;28;20058;-92
2022/08/22 05:09:57;;;;;;;12.55;7.38;;;15.50;99.90;;;;;;5076889;28;20083;-92
2022/08/22 05:12:28;;;;;;;18.55;7.78;;;15.50;99.90;;;;;;5044108;28;20063;-92
2022/08/22 05:14:59;;;;;;;15.32;7.88;;;15.60;99.90;;;;;;5062787;28;20055;-92
2022/08/22 05:17:26;;;;;;;12.80;7.78;;;15.60;99.90;;;;;;5097404;28;20435;-93
2022/08/22 05:19:55;;;;;;;15.48;8.55;;;15.70;99.90;;;;;;5079265;28;20107;-91
2022/08/22 05:22:24;;;;;;;14.18;8.60;;;15.70;99.90;;;;;;5092706;28;20056;-92
2022/08/22 05:24:52;;;;;;;13.98;8.65;;;15.70;99.90;;;;;;5097720;28;20055;-94
2022/08/22 05:27:26;;;;;;;14.00;8.43;;;15.70;99.90;;;;;;5081390;28;20048;-91
2022/08/22 05:29:56;;;;;;;13.47;8.57;;;15.80;99.90;;;;;;5081827;28;20048;-92
2022/08/22 05:32:30;;;;;;;14.30;8.27;;;15.90;99.90;;;;;;5096718;28;20107;-91
2022/08/22 05:35:00;;;;;;;17.60;8.98;;;15.90;99.90;;;;;;5097764;28;20052;-89
2022/08/22 05:37:48;;;;;;;18.08;9.32;;;16.00;99.90;;;;;;5061028;28;20036;-90
2022/08/22 05:40:22;;;;;;;15.30;8.15;;;16.10;99.90;;;;;;5079676;28;20059;-90
2022/08/22 05:42:47;;;;;;;13.35;8.13;;;16.20;99.90;;;;;;5044301;28;20052;-90
2022/08/22 05:45:13;;;;;;;15.25;9.00;;;16.30;99.90;;;;;;5077175;28;20047;-90
2022/08/22 05:47:48;;;;;;;15.82;8.73;;;16.30;99.90;;;;;;5078892;28;20476;-91
2022/08/22 05:50:21;;;;;;;15.77;8.18;;;16.40;99.90;;;;;;5080265;28;20044;-91
2022/08/22 05:53:13;;;;;;;16.65;8.48;;;16.50;99.90;;;;;;5045450;28;20051;-90
2022/08/22 05:55:42;;;;;;;15.50;9.00;;;16.60;99.90;;;;;;5078629;28;20052;-92
2022/08/22 05:58:35;;;;;;;12.30;8.73;;;16.60;99.90;;;;;;5096023;28;20479;-91
2022/08/22 06:01:23;;;;;;;18.93;8.20;;;16.50;99.90;;;;;;5079500;28;20047;-93
2022/08/22 06:04:21;;;;;;;16.70;8.55;;;16.60;99.90;;;;;;5096233;27;20052;-92
2022/08/22 06:07:00;;;;;;;18.08;8.90;;;16.70;99.90;;;;;;5076513;28;20056;-92
2022/08/22 06:09:47;;;;;;;16.67;9.07;;;16.70;99.90;;;;;;5077010;28;20500;-92
2022/08/22 06:12:14;;;;;;;14.15;8.63;;;16.80;99.90;;;;;;5094045;28;20043;-92
2022/08/22 06:14:54;;;;;;;18.17;8.27;;;16.80;99.90;;;;;;5077090;28;20051;-92
2022/08/22 06:17:23;;;;;;;12.90;8.15;;;16.90;99.90;;;;;;5093665;28;20040;-93
2022/08/22 06:19:50;;;;;;;15.85;7.80;;;16.90;99.90;;;;;;5076775;28;20054;-92
2022/08/22 06:22:38;;;;;;;15.15;8.13;;;16.90;99.90;;;;;;5093901;28;20047;-92
2022/08/22 06:25:11;;;;;;;12.32;7.88;;;17.10;99.90;;;;;;5060273;28;20055;-92
2022/08/22 06:27:37;;;;;;;14.88;7.93;;;17.20;99.90;;;;;;5076865;28;20450;-92
2022/08/22 06:30:03;;;;;;;13.90;7.38;;;17.30;99.90;;;;;;5093352;28;20139;-92
2022/08/22 06:32:32;;;;;;;8.45;7.07;;;17.30;99.90;;;;;;5127662;27;20052;-95
2022/08/22 06:35:21;;;;;;;11.88;7.75;;;17.30;99.90;;;;;;5076001;28;20091;-92
2022/08/22 06:37:47;;;;;;;17.42;7.80;;;17.30;99.90;;;;;;5080544;28;20032;-92
2022/08/22 06:40:14;;;;;;;17.30;8.40;;;17.40;99.90;;;;;;5059536;28;20048;-92
2022/08/22 06:42:45;;;;;;;12.73;7.80;;;17.40;99.90;;;;;;5094064;28;20044;-92
2022/08/22 06:45:18;;;;;;;10.98;7.88;;;17.40;99.90;;;;;;5095783;28;20066;-92
2022/08/22 06:47:47;;;;;;;17.88;8.05;;;17.40;99.90;;;;;;5094813;28;20056;-93
2022/08/22 06:50:37;;;;;;;13.75;7.28;;;17.60;99.90;;;;;;5094281;27;20074;-94
2022/08/22 06:53:16;;;;;;;12.30;7.88;;;17.60;99.90;;;;;;5093636;27;20396;-94
2022/08/22 06:56:09;;;;;;;11.52;7.20;;;17.70;99.90;;;;;;5076025;28;20047;-91
2022/08/22 06:58:42;;;;;;;11.10;7.00;;;17.80;99.90;;;;;;5075970;28;20055;-91
2022/08/22 07:01:17;;;;;;;14.00;6.95;;;17.80;99.90;;;;;;5075497;28;20475;-91
2022/08/22 07:03:54;;;;;;;10.45;7.20;;;17.80;99.90;;;;;;5109853;27;20052;-90
2022/08/22 07:06:28;;;;;;;13.35;7.20;;;17.90;99.90;;;;;;5094146;28;20056;-92
2022/08/22 07:08:54;;;;;;;12.45;6.95;;;18.00;99.90;;;;;;5059638;28;20060;-91
2022/08/22 07:11:26;;;;;;;12.73;7.38;;;17.90;99.90;;;;;;5075560;28;20048;-92
2022/08/22 07:14:13;;;;;;;10.00;6.82;;;18.00;99.90;;;;;;5059196;28;20093;-90
2022/08/22 07:16:43;;;;;;;11.18;7.32;;;18.00;99.90;;;;;;5059302;28;20051;-92
2022/08/22 07:19:21;;;;;;;14.00;7.80;;;18.30;99.90;;;;;;5058544;28;20063;-94
2022/08/22 07:21:46;;;;;;;13.77;7.07;;;18.20;99.90;;;;;;5044393;28;20056;-92
2022/08/22 07:24:14;;;;;;;13.32;7.97;;;18.30;99.90;;;;;;5058676;28;20051;-93
2022/08/22 07:27:10;;;;;;;13.68;8.50;;;18.30;99.90;;;;;;5092953;28;20098;-92
2022/08/22 07:29:57;;;;;;;14.73;7.95;;;18.20;99.90;;;;;;5061395;28;20048;-93
2022/08/22 07:32:42;;;;;;;14.45;7.57;;;18.20;99.90;;;;;;5075620;28;20047;-93
2022/08/22 07:35:23;;;;;;;12.80;7.70;;;18.40;99.90;;;;;;5092111;28;20369;-92
2022/08/22 07:38:16;;;;;;;12.13;7.03;;;18.40;99.90;;;;;;5059413;28;20040;-93
2022/08/22 07:41:06;;;;;;;8.10;6.40;;;18.50;99.90;;;;;;5059617;28;20605;-91
2022/08/22 07:43:56;;;;;;;12.50;5.30;;;18.60;99.90;;;;;;5060651;28;20549;-92
2022/08/22 07:46:37;;;;;;;12.13;5.63;;;18.90;99.90;;;;;;5059284;28;20105;-91
2022/08/22 07:49:06;;;;;;;10.00;6.03;;;18.90;99.90;;;;;;5093866;28;20143;-92
2022/08/22 07:51:44;;;;;;;16.42;6.13;;;18.80;99.90;;;;;;5063772;28;20032;-93
2022/08/22 07:54:15;;;;;;;12.32;5.65;;;18.90;99.90;;;;;;5100967;28;20129;-93
2022/08/22 07:59:30;;;;;;;11.80;5.72;;;19.20;99.90;;;;;;4790648;22;20061;-93
2022/08/22 08:02:00;;;;;;;10.95;6.38;;;19.30;99.90;;;;;;5440669;22;20043;-92
2022/08/22 08:04:34;;;;;;;13.75;6.57;;;19.70;99.90;;;;;;5267283;23;20099;-89
2022/08/22 08:07:04;;;;;;;12.13;5.68;;;19.30;99.90;;;;;;5288382;23;20108;-90
2022/08/22 08:09:33;;;;;;;11.93;6.15;;;19.30;99.90;;;;;;5018250;28;20048;-91
2022/08/22 08:11:59;;;;;;;10.55;5.72;;;19.50;99.90;;;;;;5030930;28;20049;-92
2022/08/22 08:14:25;;;;;;;10.90;5.68;;;19.50;99.90;;;;;;5030819;28;20054;-93
2022/08/22 08:17:01;;;;;;;12.52;5.32;;;19.80;99.90;;;;;;4998075;28;20088;-91
2022/08/22 08:19:28;;;;;;;13.10;5.32;;;19.00;99.90;;;;;;5011869;28;20053;-93
2022/08/22 08:22:16;;;;;;;9.70;5.15;;;19.90;99.90;;;;;;5065243;23;20060;-94
2022/08/22 08:24:41;;;;;;;14.60;6.00;;;20.40;99.90;;;;;;5033133;28;20538;-89
2022/08/22 08:30:17;;;;;;;11.45;6.05;;;19.80;99.90;;;;;;5045396;28;20084;-89
2022/08/22 08:32:57;;;;;;;9.70;6.05;;;19.90;99.90;;;;;;5057294;28;20065;-86
2022/08/22 08:35:30;;;;;;;11.52;6.38;;;20.30;99.90;;;;;;5056373;28;20053;-90
2022/08/22 08:38:01;;;;;;;19.17;6.93;;;20.70;99.90;;;;;;5059219;28;20182;-94
2022/08/22 08:40:32;;;;;;;11.27;5.95;;;20.50;99.90;;;;;;5039073;28;20049;-90
2022/08/22 08:43:28;;;;;;;11.57;6.10;;;20.70;99.90;;;;;;5071545;28;20149;-90
2022/08/22 08:46:29;;;;;;;15.23;7.00;;;20.90;99.90;;;;;;5050009;28;20122;-91
2022/08/22 08:49:01;;;;;;;14.45;7.10;;;20.50;99.90;;;;;;5043950;28;20048;-93
2022/08/22 08:51:39;;;;;;;14.20;6.78;;;20.50;99.90;;;;;;5070891;28;20347;-91
2022/08/22 08:54:23;;;;;;;14.32;6.55;;;20.60;99.90;;;;;;5072133;28;20056;-90
2022/08/22 08:56:48;;;;;;;;;;;20.90;99.90;;;;;;5071436;28;20056;-91
2022/08/22 08:59:31;;;;;;;12.65;5.65;;;20.80;99.90;;;;;;5069412;28;20451;-90
2022/08/22 09:02:28;;;;;;;13.57;5.28;;;20.80;99.90;;;;;;5053629;28;20074;-91
2022/08/22 09:05:22;;;;;;;8.77;4.82;;;20.80;99.90;;;;;;5037417;28;20127;-91
2022/08/22 09:08:26;;;;;;;12.55;4.97;;;20.90;99.90;;;;;;5038779;28;20055;-91
2022/08/22 09:11:29;;;;;;;10.68;4.80;;;20.70;99.90;;;;;;5044516;28;20079;-90
2022/08/22 09:14:04;;;;;;;14.75;5.30;;;20.60;99.90;;;;;;5018612;28;20141;-92
2022/08/22 09:17:22;;;;;;;14.57;5.53;;;20.60;99.90;;;;;;5054039;28;20843;-92
2022/08/22 09:20:29;;;;;;;12.90;4.95;;;20.70;99.90;;;;;;5024682;28;20056;-91
2022/08/22 09:23:03;;;;;;;11.13;3.80;;;21.00;99.90;;;;;;5054998;28;20056;-92
2022/08/22 09:26:04;;;;;;;13.88;5.35;;;21.50;99.90;;;;;;5069971;28;20419;-92
2022/08/22 09:28:39;;;;;;;14.02;5.13;;;21.90;99.90;;;;;;5008484;28;20142;-92
2022/08/22 09:31:20;;;;;;;13.15;4.40;;;21.90;99.90;;;;;;5054417;28;20048;-92
2022/08/22 09:33:53;;;;;;;16.58;7.72;;;21.90;99.90;;;;;;5069743;28;20750;-92
2022/08/22 09:36:47;;;;;;;9.32;5.07;;;21.80;99.90;;;;;;5037433;28;20084;-92
2022/08/22 09:39:33;;;;;;;9.65;4.85;;;21.40;99.90;;;;;;5021887;28;20052;-88
2022/08/22 09:42:31;;;;;;;10.05;4.45;;;21.40;99.90;;;;;;5069442;28;20049;-92
2022/08/22 09:45:18;;;;;;;9.65;4.93;;;21.70;99.90;;;;;;5039225;28;20080;-87
2022/08/22 09:47:54;;;;;;;9.60;5.03;;;21.80;99.90;;;;;;5069562;28;20517;-89
2022/08/22 09:50:47;;;;;;;12.00;4.28;;;22.30;99.90;;;;;;5053531;28;20095;-90
2022/08/22 09:53:26;;;;;;;13.25;4.00;;;22.80;99.90;;;;;;5055050;28;20051;-90
2022/08/22 09:55:54;;;;;;;11.68;4.10;;;23.60;99.90;;;;;;5037156;28;20506;-89
2022/08/22 09:58:34;;;;;;;12.23;3.90;;;24.20;99.90;;;;;;5052362;28;20045;-88
2022/08/22 10:01:10;;;;;;;10.43;4.43;;;24.00;99.90;;;;;;5036359;28;20056;-88
2022/08/22 10:04:04;;;;;;;6.95;3.70;;;24.00;99.90;;;;;;5036827;28;20257;-87
2022/08/22 10:06:34;;;;;;;12.03;4.37;;;24.20;99.90;;;;;;5072029;28;20048;-87
2022/08/22 10:09:03;;;;;;;11.25;3.80;;;23.90;99.90;;;;;;5036806;28;20059;-89
2022/08/22 10:11:31;;;;;;;12.27;4.10;;;24.00;99.90;;;;;;5054458;28;20048;-88
2022/08/22 10:13:58;;;;;;;12.40;3.90;;;23.70;99.90;;;;;;5023956;28;20071;-89
2022/08/22 10:16:30;;;;;;;15.18;4.43;;;23.70;99.90;;;;;;5056219;28;20064;-88
2022/08/22 10:19:25;;;;;;;9.02;3.63;;;23.20;99.90;;;;;;5073570;28;20048;-87
2022/08/22 10:22:12;;;;;;;11.73;4.18;;;23.50;99.90;;;;;;5047666;28;20058;-87
2022/08/22 10:24:49;;;;;;;9.88;3.33;;;23.70;99.90;;;;;;5056058;28;20131;-87
2022/08/22 10:27:18;;;;;;;10.10;3.85;;;23.50;99.90;;;;;;5072620;28;20396;-87
2022/08/22 10:30:11;;;;;;;11.93;4.00;;;23.30;99.90;;;;;;5039548;28;20044;-87
2022/08/22 10:32:53;;;;;;;5.15;3.15;;;23.30;99.90;;;;;;5069220;28;20056;-87
2022/08/22 10:35:30;;;;;;;7.63;3.28;;;23.40;99.90;;;;;;5057016;28;20479;-87
2022/08/22 10:38:07;;;;;;;11.48;3.15;;;23.40;99.90;;;;;;5057183;28;20040;-86
2022/08/22 10:40:55;;;;;;;7.13;3.20;;;23.40;99.90;;;;;;5055963;28;20087;-86
2022/08/22 10:43:33;;;;;;;11.50;3.33;;;23.30;99.90;;;;;;5058661;28;20045;-87
2022/08/22 10:46:04;;;;;;;7.43;2.72;;;23.30;99.90;;;;;;5072312;28;20048;-88
2022/08/22 10:48:38;;;;;;;6.55;2.42;;;23.60;99.90;;;;;;5023076;28;20464;-88
2022/08/22 10:51:16;;;;;;;7.07;2.63;;;23.60;99.90;;;;;;5039440;28;20127;-90
2022/08/22 10:54:11;;;;;;;5.88;2.28;;;23.30;99.90;;;;;;5039982;28;20139;-89
2022/08/22 10:57:06;;;;;;;5.45;2.50;;;23.40;99.90;;;;;;5072638;28;20056;-89
2022/08/22 11:00:11;;;;;;;11.35;3.33;;;23.20;99.90;;;;;;5070101;28;20052;-88
2022/08/22 11:03:01;;;;;;;6.55;2.53;;;23.20;99.90;;;;;;5039434;28;20518;-88
2022/08/22 11:05:35;;;;;;;5.88;2.65;;;23.30;99.90;;;;;;5058337;28;20044;-88
2022/08/22 11:08:16;;;;;;;5.45;2.15;;;23.30;99.90;;;;;;5073710;28;20063;-88
2022/08/22 11:11:18;;;;;;;3.97;2.47;;;23.10;99.90;;;;;;5072696;28;20235;-89
2022/08/22 11:14:21;;;;;;;8.75;2.28;;;23.00;99.90;;;;;;5050085;28;20508;-89
2022/08/22 11:17:08;;;;;;;8.23;2.38;;;23.10;99.90;;;;;;5071224;28;20060;-89
2022/08/22 11:20:09;;;;;;;7.13;2.55;;;23.00;99.90;;;;;;5072247;28;20045;-87
2022/08/22 11:22:56;;;;;;;7.40;2.45;;;23.10;99.90;;;;;;5018023;28;20053;-88
2022/08/22 11:25:34;;;;;;;7.93;2.55;;;23.30;99.90;;;;;;5071581;28;20063;-90
2022/08/22 11:28:00;;;;;;;8.07;2.60;;;23.60;99.90;;;;;;5038644;28;20052;-91
2022/08/22 11:30:33;;;;;;;8.90;2.50;;;23.70;99.90;;;;;;5055312;28;20135;-91
2022/08/22 11:33:23;;;;;;;5.18;2.22;;;23.90;99.90;;;;;;5038448;28;20090;-89
2022/08/22 11:35:50;;;;;;;11.50;2.78;;;23.70;99.90;;;;;;5054207;28;20088;-89
2022/08/22 11:38:23;;;;;;;8.02;3.05;;;23.70;99.90;;;;;;5038286;28;20045;-90
2022/08/22 11:40:56;;;;;;;7.35;3.00;;;23.90;99.90;;;;;;5055274;28;20040;-91
2022/08/22 11:43:25;;;;;;;12.77;3.25;;;24.30;99.90;;;;;;5054868;28;20500;-89
2022/08/22 11:45:52;;;;;;;10.00;2.60;;;24.10;99.90;;;;;;5071058;28;20045;-90
2022/08/22 11:48:25;;;;;;;10.05;2.70;;;24.20;99.90;;;;;;5024371;28;20093;-90
2022/08/22 11:51:15;;;;;;;6.82;3.25;;;24.50;99.90;;;;;;5073476;28;20407;-88
2022/08/22 11:53:48;;;;;;;6.55;2.45;;;24.40;99.90;;;;;;5088582;28;20068;-85
2022/08/22 11:56:31;;;;;;;7.55;2.30;;;24.80;99.90;;;;;;5073506;28;20055;-88
2022/08/22 11:59:17;;;;;;;9.38;3.10;;;24.90;99.90;;;;;;5069279;28;20053;-87
2022/08/22 12:01:49;;;;;;;7.75;2.70;;;24.40;99.90;;;;;;5076894;28;20053;-87
2022/08/22 12:04:17;;;;;;;6.55;3.08;;;24.20;99.90;;;;;;5049683;28;20389;-88
2022/08/22 12:06:59;;;;;;;5.15;2.20;;;24.30;99.90;;;;;;5071923;28;20048;-88
2022/08/22 12:09:40;;;;;;;7.97;2.50;;;24.10;99.90;;;;;;5074542;28;20048;-91
2022/08/22 12:12:27;;;;;;;6.85;2.55;;;24.20;99.90;;;;;;5073377;28;20513;-89
2022/08/22 12:15:11;;;;;;;6.63;2.33;;;24.20;99.90;;;;;;5071667;28;20540;-88
2022/08/22 12:17:49;;;;;;;7.47;3.13;;;24.10;99.90;;;;;;5072523;28;20507;-90
2022/08/22 12:20:18;;;;;;;7.72;3.00;;;24.20;99.90;;;;;;5073745;28;20052;-89
2022/08/22 12:22:47;;;;;;;6.47;3.10;;;24.10;99.90;;;;;;5089466;28;20059;-89
2022/08/22 12:25:21;;;;;;;7.40;2.63;;;24.50;99.90;;;;;;5075028;28;20040;-89
2022/08/22 12:28:23;;;;;;;7.40;2.83;;;24.40;99.90;;;;;;5074386;28;20052;-90
2022/08/22 12:31:08;;;;;;;7.57;2.28;;;24.60;99.90;;;;;;5040463;28;20070;-90
2022/08/22 12:33:48;;;;;;;5.90;2.60;;;24.40;99.90;;;;;;5091989;28;20088;-89
2022/08/22 12:36:30;;;;;;;12.35;3.10;;;24.40;99.90;;;;;;5059545;28;20444;-91
2022/08/22 12:39:17;;;;;;;5.47;2.15;;;24.90;99.90;;;;;;5092100;28;20101;-86
2022/08/22 12:41:45;;;;;;;7.13;2.90;;;25.00;99.90;;;;;;5092182;28;20066;-88
2022/08/22 12:44:16;;;;;;;5.03;2.55;;;25.00;99.90;;;;;;5075021;28;20052;-90
2022/08/22 12:46:45;;;;;;;9.35;2.40;;;25.00;99.90;;;;;;5073879;28;20052;-88
2022/08/22 12:49:44;;;;;;;11.32;3.25;;;25.10;99.90;;;;;;5092778;28;20098;-88
2022/08/22 12:52:19;;;;;;;5.97;2.20;;;25.50;99.90;;;;;;5070978;28;20048;-89
2022/08/22 12:54:58;;;;;;;9.38;3.50;;;25.80;99.90;;;;;;5041460;28;20048;-87
2022/08/22 12:57:36;;;;;;;7.50;3.20;;;25.50;99.90;;;;;;5056821;28;20141;-88
2022/08/22 13:00:08;;;;;;;7.82;3.20;;;25.70;99.90;;;;;;5091191;28;20131;-89
2022/08/22 13:02:34;;;;;;;7.72;2.63;;;25.50;99.90;;;;;;5091473;28;20051;-89
2022/08/22 13:05:23;;;;;;;8.32;3.10;;;25.50;99.90;;;;;;5056794;28;20052;-89
2022/08/22 13:07:57;;;;;;;6.63;2.53;;;25.70;99.90;;;;;;5057231;28;20115;-89
2022/08/22 13:10:37;;;;;;;6.32;2.95;;;25.60;99.90;;;;;;5057454;28;20488;-87
2022/08/22 13:13:03;;;;;;;7.07;2.70;;;25.40;99.90;;;;;;5057934;28;20143;-89
2022/08/22 13:15:47;;;;;;;5.93;3.10;;;25.40;99.90;;;;;;5057000;28;20132;-86
2022/08/22 13:18:20;;;;;;;5.65;3.13;;;25.00;99.90;;;;;;5058061;28;20067;-89
2022/08/22 13:20:49;;;;;;;8.20;3.22;;;25.10;99.90;;;;;;5040485;28;20560;-87
2022/08/22 13:23:25;;;;;;;6.13;2.85;;;25.00;99.90;;;;;;5056917;28;20047;-85
2022/08/22 13:26:14;;;;;;;6.18;3.05;;;24.70;99.90;;;;;;5090551;28;20056;-90
2022/08/22 13:28:45;;;;;;;8.52;2.83;;;24.80;99.90;;;;;;5073347;28;20055;-88
2022/08/22 13:31:34;;;;;;;8.25;2.67;;;24.90;99.90;;;;;;5057193;28;20052;-88
2022/08/22 13:34:01;;;;;;;7.72;2.80;;;25.00;99.90;;;;;;5044069;28;20475;-89
2022/08/22 13:36:27;;;;;;;7.25;2.90;;;25.10;99.90;;;;;;5056765;28;20052;-88
2022/08/22 13:39:23;;;;;;;5.45;2.47;;;25.00;99.90;;;;;;5056278;28;20573;-88
2022/08/22 13:41:51;;;;;;;6.95;2.55;;;25.20;99.90;;;;;;5056638;28;20150;-88
2022/08/22 13:44:38;;;;;;;6.75;2.28;;;25.20;99.90;;;;;;5056917;28;20480;-88
2022/08/22 13:47:09;;;;;;;10.57;3.03;;;25.20;99.90;;;;;;5060199;28;20079;-87
2022/08/22 13:49:38;;;;;;;8.35;2.72;;;25.50;99.90;;;;;;5060638;28;20047;-87
2022/08/22 13:52:09;;;;;;;6.85;2.70;;;25.50;99.90;;;;;;5076313;28;20403;-87
2022/08/22 13:55:13;;;;;;;6.95;2.83;;;25.50;99.90;;;;;;5096060;28;20166;-88